Time;durP1;ratioP1;P1;durP2;ratioP2;P2;SDS_P1;SDS_P2;PMS_P1;PMS_P2;Temp;Humidity;BMP_temperature;BMP_pressure;BME280_temperature;BME280_humidity;BME280_pressure;Samples;Min_cycle;Max_cycle;Signal;HPM_P1;HPM_P2
2022/06/07 00:01:06;;;;;;;2.28;0.40;;;23.30;99.90;;;;;;4939070;29;20204;-81
2022/06/07 00:03:33;;;;;;;2.20;0.50;;;23.30;99.90;;;;;;4939308;29;20204;-81
2022/06/07 00:06:00;;;;;;;6.93;0.80;;;23.40;99.90;;;;;;4939033;29;20239;-81
2022/06/07 00:08:28;;;;;;;7.85;0.70;;;23.30;99.90;;;;;;4939221;29;20286;-81
2022/06/07 00:10:55;;;;;;;13.85;1.02;;;23.30;99.90;;;;;;4939448;29;20228;-81
2022/06/07 00:13:21;;;;;;;2.17;0.77;;;23.30;99.90;;;;;;4939276;29;20214;-81
2022/06/07 00:15:49;;;;;;;4.78;0.45;;;23.40;99.90;;;;;;4939127;29;20223;-81
2022/06/07 00:18:17;;;;;;;1.70;0.40;;;23.30;99.90;;;;;;4939481;29;20256;-81
2022/06/07 00:20:44;;;;;;;1.13;0.40;;;23.30;99.90;;;;;;4939322;29;20204;-81
2022/06/07 00:23:13;;;;;;;3.80;0.40;;;23.40;99.90;;;;;;4938468;29;20204;-81
2022/06/07 00:25:41;;;;;;;4.88;0.57;;;23.30;99.90;;;;;;4938921;29;20214;-81
2022/06/07 00:28:08;;;;;;;1.15;0.40;;;23.30;99.90;;;;;;4938779;29;20230;-81
2022/06/07 00:30:35;;;;;;;0.95;0.43;;;23.30;99.90;;;;;;4939424;29;20291;-81
2022/06/07 00:33:03;;;;;;;2.78;0.45;;;23.30;99.90;;;;;;4939449;29;20208;-82
2022/06/07 00:35:31;;;;;;;11.10;0.93;;;23.30;99.90;;;;;;4939843;29;20244;-82
2022/06/07 00:37:58;;;;;;;9.13;1.08;;;23.30;99.90;;;;;;4938977;29;20234;-82
2022/06/07 00:40:25;;;;;;;9.25;0.82;;;23.30;99.90;;;;;;4939691;29;20291;-82
2022/06/07 00:42:52;;;;;;;6.22;0.60;;;23.30;99.90;;;;;;4939304;29;20211;-82
2022/06/07 00:45:22;;;;;;;14.52;0.88;;;23.30;99.90;;;;;;4939240;29;20208;-82
2022/06/07 00:47:49;;;;;;;3.45;0.60;;;23.30;99.90;;;;;;4938584;29;20319;-81
2022/06/07 00:50:22;;;;;;;9.70;0.93;;;23.30;99.90;;;;;;4938680;29;20204;-81
2022/06/07 00:52:50;;;;;;;8.15;0.82;;;23.40;99.90;;;;;;4938710;29;20621;-81
2022/06/07 00:55:18;;;;;;;5.72;0.55;;;23.30;99.90;;;;;;4938867;29;20200;-81
2022/06/07 00:57:45;;;;;;;8.10;1.00;;;23.30;99.90;;;;;;4939685;29;20227;-81
2022/06/07 01:00:15;;;;;;;10.90;0.65;;;23.30;99.90;;;;;;4939263;29;20207;-81
2022/06/07 01:02:42;;;;;;;3.65;0.60;;;23.30;99.90;;;;;;4939112;29;20224;-81
2022/06/07 01:05:09;;;;;;;3.55;0.52;;;23.30;99.90;;;;;;4939110;29;20240;-82
2022/06/07 01:13:06;;;;;;;8.63;1.20;;;23.30;99.90;;;;;;4939262;29;20700;-82
2022/06/07 01:15:33;;;;;;;9.90;1.40;;;23.30;99.90;;;;;;4939640;29;20295;-81
2022/06/07 01:18:00;;;;;;;2.90;0.63;;;23.30;99.90;;;;;;4939287;29;20250;-81
2022/06/07 01:20:28;;;;;;;7.13;0.80;;;23.30;99.90;;;;;;4938743;29;20239;-81
2022/06/07 01:22:56;;;;;;;6.43;0.90;;;23.30;99.90;;;;;;4939120;29;20208;-81
2022/06/07 01:25:24;;;;;;;12.15;0.88;;;23.30;99.90;;;;;;4938876;29;20214;-82
2022/06/07 01:27:50;;;;;;;1.02;0.40;;;23.30;99.90;;;;;;4939143;29;20234;-82
2022/06/07 01:30:18;;;;;;;7.13;0.82;;;23.30;99.90;;;;;;4938960;29;20200;-82
2022/06/07 01:32:44;;;;;;;7.20;0.70;;;23.30;99.90;;;;;;4938951;29;20211;-82
2022/06/07 01:35:12;;;;;;;1.65;0.40;;;23.30;99.90;;;;;;4938850;29;20231;-81
2022/06/07 01:37:38;;;;;;;9.43;0.68;;;23.30;99.90;;;;;;4938225;29;20314;-81
2022/06/07 01:42:52;;;;;;;0.68;0.40;;;23.30;99.90;;;;;;4938833;29;20655;-81
2022/06/07 01:45:20;;;;;;;7.82;0.80;;;23.30;99.90;;;;;;4939241;29;20299;-82
2022/06/07 01:47:47;;;;;;;4.05;0.40;;;23.30;99.90;;;;;;4938609;29;20632;-82
2022/06/07 01:50:14;;;;;;;2.10;1.05;;;23.30;99.90;;;;;;4938835;29;20698;-82
2022/06/07 01:52:41;;;;;;;7.70;0.93;;;23.30;99.90;;;;;;4939253;29;20243;-82
2022/06/07 01:55:09;;;;;;;15.40;1.77;;;23.30;99.90;;;;;;4938596;29;20686;-82
2022/06/07 01:57:36;;;;;;;13.27;1.17;;;23.30;99.90;;;;;;4938674;29;20310;-82
2022/06/07 02:00:05;;;;;;;3.45;0.70;;;23.30;99.90;;;;;;4938751;29;20295;-82
2022/06/07 02:02:31;;;;;;;13.30;0.90;;;23.30;99.90;;;;;;4939063;29;20227;-82
2022/06/07 02:04:58;;;;;;;4.60;0.70;;;23.30;99.90;;;;;;4938612;29;20204;-81
2022/06/07 02:07:25;;;;;;;7.80;0.73;;;23.30;99.90;;;;;;4938055;29;20315;-81
2022/06/07 02:09:52;;;;;;;10.80;0.75;;;23.30;99.90;;;;;;4938628;29;20234;-82
2022/06/07 02:12:21;;;;;;;12.00;1.20;;;23.30;99.90;;;;;;4938671;29;20208;-82
2022/06/07 02:14:47;;;;;;;5.85;0.70;;;23.30;99.90;;;;;;4938370;29;20291;-82
2022/06/07 02:17:15;;;;;;;2.03;0.60;;;23.30;99.90;;;;;;4938727;29;20228;-81
2022/06/07 02:19:44;;;;;;;1.85;0.45;;;23.30;99.90;;;;;;4937866;29;20196;-80
2022/06/07 02:22:10;;;;;;;4.03;0.60;;;23.30;99.90;;;;;;4938356;29;20208;-81
2022/06/07 02:24:37;;;;;;;5.57;0.73;;;23.30;99.90;;;;;;4937782;29;20295;-81
2022/06/07 02:27:08;;;;;;;5.95;0.50;;;23.30;99.90;;;;;;4937724;29;20738;-80
2022/06/07 02:29:39;;;;;;;2.75;0.63;;;23.30;99.90;;;;;;4937865;29;20215;-80
2022/06/07 02:32:11;;;;;;;0.70;0.50;;;23.30;99.90;;;;;;4937708;29;20192;-81
2022/06/07 02:34:41;;;;;;;0.50;0.50;;;23.30;99.90;;;;;;4938054;29;20644;-81
2022/06/07 02:37:08;;;;;;;0.55;0.55;;;23.30;99.90;;;;;;4937779;29;20771;-80
2022/06/07 02:39:37;;;;;;;0.75;0.40;;;23.30;99.90;;;;;;4938040;29;20203;-80
2022/06/07 02:42:07;;;;;;;3.38;0.30;;;23.30;99.90;;;;;;4937844;29;20204;-80
2022/06/07 02:44:35;;;;;;;1.75;0.52;;;23.30;99.90;;;;;;4938477;29;20210;-80
2022/06/07 02:47:03;;;;;;;0.55;0.30;;;23.30;99.90;;;;;;4941032;29;20310;-80
2022/06/07 02:49:29;;;;;;;0.30;0.30;;;23.30;99.90;;;;;;4940859;29;20312;-80
2022/06/07 02:51:57;;;;;;;0.40;0.40;;;23.30;99.90;;;;;;4941150;29;20291;-80
2022/06/07 02:54:24;;;;;;;1.17;0.22;;;23.30;99.90;;;;;;4941090;29;20239;-80
2022/06/07 02:56:51;;;;;;;0.75;0.30;;;23.30;99.90;;;;;;4941195;29;20212;-80
2022/06/07 02:59:18;;;;;;;6.05;0.65;;;23.30;99.90;;;;;;4940977;29;20636;-80
2022/06/07 03:01:46;;;;;;;5.03;0.30;;;23.30;99.90;;;;;;4941217;29;20232;-80
2022/06/07 03:04:13;;;;;;;5.05;0.38;;;23.30;99.90;;;;;;4940494;29;20204;-80
2022/06/07 03:06:40;;;;;;;11.77;1.95;;;23.30;99.90;;;;;;4940623;29;20271;-80
2022/06/07 07:50:21;;;;;;;4.30;0.73;;;21.00;99.90;;;;;;5126669;27;20378;-81
2022/06/07 07:52:48;;;;;;;6.90;1.08;;;22.70;99.90;;;;;;5153984;22;20204;-85
2022/06/07 07:55:15;;;;;;;8.27;1.00;;;22.60;99.90;;;;;;5079410;28;20534;-85
2022/06/07 07:57:42;;;;;;;6.30;0.95;;;22.70;99.90;;;;;;5077118;28;20211;-85
2022/06/07 08:00:10;;;;;;;5.68;0.80;;;22.70;99.90;;;;;;5078561;28;20242;-85
2022/06/07 08:02:37;;;;;;;7.90;0.75;;;22.70;99.90;;;;;;5080535;28;20216;-86
2022/06/07 08:05:05;;;;;;;5.25;0.52;;;22.70;99.90;;;;;;5076726;28;20207;-85
2022/06/07 08:07:33;;;;;;;40.45;2.22;;;22.70;99.90;;;;;;5072319;28;20206;-87
2022/06/07 08:10:02;;;;;;;14.55;1.05;;;22.80;99.90;;;;;;5073938;28;20210;-84
2022/06/07 08:12:29;;;;;;;11.93;0.85;;;22.80;99.90;;;;;;5074749;28;20219;-85
2022/06/07 08:14:56;;;;;;;10.25;1.13;;;22.80;99.90;;;;;;5074753;28;20571;-85
2022/06/07 08:17:23;;;;;;;9.75;0.60;;;22.80;99.90;;;;;;5074607;28;20264;-85
2022/06/07 08:19:50;;;;;;;8.55;1.20;;;22.90;99.90;;;;;;5074593;28;20219;-86
2022/06/07 08:22:17;;;;;;;7.60;0.55;;;22.90;99.90;;;;;;5074605;28;20290;-86
2022/06/07 08:24:45;;;;;;;12.48;0.70;;;22.90;99.90;;;;;;5074024;28;20715;-84
2022/06/07 08:27:12;;;;;;;10.30;0.82;;;22.90;99.90;;;;;;5072961;28;20230;-85
2022/06/07 08:29:39;;;;;;;5.70;0.60;;;23.00;99.90;;;;;;5073183;28;20744;-85
2022/06/07 08:32:07;;;;;;;11.20;0.60;;;23.00;99.90;;;;;;5073708;28;20199;-85
2022/06/07 08:37:37;;;;;;;3.92;1.00;;;23.00;99.90;;;;;;5075455;28;20251;-85
2022/06/07 08:40:09;;;;;;;4.38;0.80;;;23.00;99.90;;;;;;5075491;28;20199;-86
2022/06/07 08:42:39;;;;;;;2.60;0.63;;;23.00;99.90;;;;;;5074022;28;20184;-85
2022/06/07 08:45:09;;;;;;;1.83;0.45;;;23.00;99.90;;;;;;5074041;28;20560;-85
2022/06/07 08:47:41;;;;;;;2.47;0.45;;;23.00;99.90;;;;;;5073100;28;20188;-85
2022/06/07 08:50:17;;;;;;;1.40;0.45;;;23.10;99.90;;;;;;5066582;28;20184;-85
2022/06/07 08:52:45;;;;;;;2.05;0.40;;;23.10;99.90;;;;;;5060257;28;20184;-86
2022/06/07 08:55:19;;;;;;;0.95;0.40;;;23.00;99.90;;;;;;5060362;28;20283;-86
2022/06/07 08:57:56;;;;;;;3.30;0.32;;;23.10;99.90;;;;;;5060739;28;20198;-86
2022/06/07 09:00:25;;;;;;;4.60;0.40;;;23.10;99.90;;;;;;5060837;28;20279;-85
2022/06/07 09:03:36;;;;;;;2.92;0.50;;;23.10;99.90;;;;;;5060548;28;20248;-86
2022/06/07 09:06:05;;;;;;;4.70;0.43;;;23.10;99.90;;;;;;4978734;28;20648;-85
2022/06/07 09:08:37;;;;;;;5.32;0.40;;;23.10;99.90;;;;;;5051100;28;20629;-85
2022/06/07 09:13:55;;;;;;;4.32;0.60;;;23.10;99.90;;;;;;5059713;28;20227;-85
2022/06/07 09:16:22;;;;;;;4.50;0.40;;;23.10;99.90;;;;;;5059366;28;20224;-85
2022/06/07 09:18:52;;;;;;;3.85;0.32;;;23.10;99.90;;;;;;5059575;28;20239;-85
2022/06/07 09:21:27;;;;;;;7.43;0.57;;;23.10;99.90;;;;;;5058571;28;20576;-85
2022/06/07 09:23:56;;;;;;;1.65;0.75;;;23.10;99.90;;;;;;5057177;28;20309;-84
2022/06/07 09:26:28;;;;;;;8.05;0.70;;;23.10;99.90;;;;;;5057650;28;20556;-85
2022/06/07 09:29:13;;;;;;;5.22;0.45;;;23.10;99.90;;;;;;5059563;28;20185;-84
2022/06/07 09:31:42;;;;;;;2.08;0.47;;;23.20;99.90;;;;;;5058849;28;20204;-85
2022/06/07 09:34:17;;;;;;;0.75;0.30;;;23.10;99.90;;;;;;5058119;28;20222;-85
2022/06/07 09:36:50;;;;;;;3.25;0.73;;;23.10;99.90;;;;;;5059771;28;20633;-85
2022/06/07 09:39:19;;;;;;;2.80;0.47;;;23.10;99.90;;;;;;5060137;28;20235;-86
2022/06/07 09:41:51;;;;;;;4.13;0.60;;;23.10;99.90;;;;;;5060841;28;20203;-85
2022/06/07 09:44:25;;;;;;;8.88;0.63;;;23.10;99.90;;;;;;5059023;28;20226;-85
2022/06/07 09:46:59;;;;;;;7.43;0.50;;;23.10;99.90;;;;;;5059660;28;20279;-84
2022/06/07 09:49:30;;;;;;;3.78;0.50;;;23.20;99.90;;;;;;5058133;28;20263;-85
2022/06/07 09:52:06;;;;;;;3.35;0.60;;;23.10;99.90;;;;;;5058620;28;20287;-85
2022/06/07 09:54:38;;;;;;;7.07;0.85;;;23.10;99.90;;;;;;5059055;28;20255;-83
2022/06/07 09:57:32;;;;;;;5.65;0.60;;;23.10;99.90;;;;;;5058475;28;20187;-81
2022/06/07 10:00:17;;;;;;;0.88;0.40;;;23.10;99.90;;;;;;5058155;28;20200;-82
2022/06/07 10:03:05;;;;;;;1.52;0.65;;;23.10;99.90;;;;;;5056697;28;20188;-82
2022/06/07 10:05:35;;;;;;;4.35;0.40;;;23.10;99.90;;;;;;5058927;28;20195;-81
2022/06/07 10:08:13;;;;;;;4.95;0.70;;;23.10;99.90;;;;;;5058456;28;20267;-82
2022/06/07 10:10:48;;;;;;;4.72;0.52;;;23.10;99.90;;;;;;5058343;28;20277;-82
2022/06/07 10:13:27;;;;;;;3.20;0.50;;;23.20;99.90;;;;;;5057632;28;20249;-82
2022/06/07 10:16:02;;;;;;;3.45;0.30;;;23.20;99.90;;;;;;5057551;28;20275;-82
2022/06/07 10:18:45;;;;;;;4.95;0.40;;;23.10;99.90;;;;;;5057472;28;20212;-81
2022/06/07 10:21:40;;;;;;;2.72;0.60;;;23.20;99.90;;;;;;5057905;28;20262;-82
2022/06/07 10:24:18;;;;;;;0.63;0.38;;;23.20;99.90;;;;;;5058592;28;20220;-82
2022/06/07 10:26:59;;;;;;;2.20;0.30;;;23.20;99.90;;;;;;5057729;28;20188;-82
2022/06/07 10:29:42;;;;;;;2.85;0.70;;;23.20;99.90;;;;;;5060635;28;20181;-82
2022/06/07 10:32:18;;;;;;;0.50;0.43;;;23.20;99.90;;;;;;5058003;28;20214;-82
2022/06/07 10:34:51;;;;;;;0.88;0.40;;;23.20;99.90;;;;;;5058354;28;20648;-82
2022/06/07 10:37:29;;;;;;;2.47;1.08;;;23.20;99.90;;;;;;5058332;28;20195;-82
2022/06/07 10:40:08;;;;;;;8.82;2.65;;;23.20;99.90;;;;;;5057583;28;20291;-82
2022/06/07 10:42:41;;;;;;;6.03;1.30;;;23.20;99.90;;;;;;5057220;28;20220;-82
2022/06/07 10:45:19;;;;;;;8.10;1.10;;;23.30;99.90;;;;;;5057746;28;20188;-82
2022/06/07 10:47:54;;;;;;;3.63;0.70;;;23.30;99.90;;;;;;5057747;28;20528;-82
2022/06/07 10:50:26;;;;;;;7.00;0.90;;;23.30;99.90;;;;;;5057277;28;20211;-82
2022/06/07 10:53:00;;;;;;;4.90;0.95;;;23.30;99.90;;;;;;5057505;28;20788;-82
2022/06/07 10:55:34;;;;;;;2.30;0.70;;;23.30;99.90;;;;;;5057389;28;20564;-82
2022/06/07 10:58:12;;;;;;;2.70;0.68;;;23.30;99.90;;;;;;5057306;28;20267;-82
2022/06/07 11:00:46;;;;;;;1.98;0.70;;;23.30;99.90;;;;;;5057002;28;20299;-82
2022/06/07 11:03:26;;;;;;;1.13;0.93;;;23.30;99.90;;;;;;5056590;28;20658;-82
2022/06/07 11:11:36;;;;;;;1.20;0.40;;;23.30;99.90;;;;;;5056925;28;20700;-82
2022/06/07 11:14:19;;;;;;;3.30;1.02;;;23.30;99.90;;;;;;5055766;28;20227;-82
2022/06/07 11:16:57;;;;;;;1.33;0.47;;;23.30;99.90;;;;;;5055359;28;20184;-82
2022/06/07 11:19:25;;;;;;;2.90;0.60;;;23.30;99.90;;;;;;5055611;28;20303;-82
2022/06/07 11:21:57;;;;;;;2.60;0.68;;;23.30;99.90;;;;;;5056111;28;20282;-82
2022/06/07 11:24:29;;;;;;;3.90;0.55;;;23.30;99.90;;;;;;5056499;28;20586;-81
2022/06/07 11:27:15;;;;;;;1.02;0.40;;;23.30;99.90;;;;;;5056043;28;20287;-82
2022/06/07 11:29:42;;;;;;;3.15;0.38;;;23.30;99.90;;;;;;5056053;28;20271;-82
2022/06/07 11:32:49;;;;;;;0.63;0.43;;;23.30;99.90;;;;;;5056950;28;20290;-82
2022/06/07 11:35:52;;;;;;;0.52;0.52;;;23.30;99.90;;;;;;5057069;28;20211;-82
2022/06/07 11:38:32;;;;;;;3.55;0.55;;;23.40;99.90;;;;;;5056557;28;20184;-82
2022/06/07 11:41:38;;;;;;;4.43;0.50;;;23.30;99.90;;;;;;5056380;28;20263;-82
2022/06/07 11:44:26;;;;;;;2.15;0.63;;;23.30;99.90;;;;;;5056209;28;20287;-81
2022/06/07 11:47:00;;;;;;;2.17;0.35;;;23.30;99.90;;;;;;5056269;28;20279;-82
2022/06/07 11:49:40;;;;;;;2.25;0.32;;;23.30;99.90;;;;;;5056404;28;20177;-82
2022/06/07 11:52:23;;;;;;;5.45;0.50;;;23.30;99.90;;;;;;5056918;28;20184;-82
2022/06/07 11:54:54;;;;;;;2.25;0.80;;;23.40;99.90;;;;;;5056222;28;20319;-82
2022/06/07 11:57:32;;;;;;;3.95;0.75;;;23.30;99.90;;;;;;5056094;28;20188;-82
2022/06/07 12:00:01;;;;;;;3.13;0.50;;;23.30;99.90;;;;;;5056323;28;20553;-82
2022/06/07 12:02:33;;;;;;;2.03;0.45;;;23.30;99.90;;;;;;5055754;28;20196;-82
2022/06/07 12:05:25;;;;;;;2.88;0.50;;;23.40;99.90;;;;;;5055759;28;20279;-82
2022/06/07 12:07:58;;;;;;;2.35;0.40;;;23.40;99.90;;;;;;5057011;28;20185;-82
2022/06/07 12:10:36;;;;;;;1.00;0.45;;;23.40;99.90;;;;;;5056928;28;20181;-83
2022/06/07 12:13:13;;;;;;;2.13;0.30;;;23.40;99.90;;;;;;5056928;28;20314;-83
2022/06/07 12:15:44;;;;;;;2.03;0.70;;;23.40;99.90;;;;;;5056911;28;20188;-82
2022/06/07 12:18:19;;;;;;;3.65;0.40;;;23.40;99.90;;;;;;5056319;28;20689;-82
2022/06/07 12:20:55;;;;;;;0.40;0.40;;;23.40;99.90;;;;;;5055165;28;20295;-82
2022/06/07 12:23:26;;;;;;;2.38;0.30;;;23.40;99.90;;;;;;5056909;28;20624;-82
2022/06/07 12:25:56;;;;;;;1.60;0.30;;;23.40;99.90;;;;;;5058977;28;20759;-82
2022/06/07 12:28:25;;;;;;;1.73;0.40;;;23.40;99.90;;;;;;5061473;28;20192;-83
2022/06/07 12:30:52;;;;;;;5.50;0.57;;;23.40;99.90;;;;;;5060484;28;20275;-83
2022/06/07 12:33:28;;;;;;;5.57;0.50;;;23.40;99.90;;;;;;5060025;28;20283;-83
2022/06/07 12:36:00;;;;;;;0.95;0.40;;;23.40;99.90;;;;;;5060007;28;20532;-83
2022/06/07 12:38:30;;;;;;;0.93;0.40;;;23.40;99.90;;;;;;5061143;28;20617;-83
2022/06/07 12:41:02;;;;;;;4.63;0.70;;;23.40;99.90;;;;;;5059728;28;20224;-83
2022/06/07 12:43:32;;;;;;;2.88;0.57;;;23.40;99.90;;;;;;5060529;28;20219;-83
2022/06/07 12:46:03;;;;;;;2.00;0.50;;;23.40;99.90;;;;;;5060153;28;20203;-82
2022/06/07 12:48:38;;;;;;;3.22;0.38;;;23.40;99.90;;;;;;5062796;28;20226;-83
2022/06/07 12:54:04;;;;;;;3.22;0.57;;;23.40;99.90;;;;;;5095032;28;20570;-80
2022/06/07 12:56:35;;;;;;;6.22;0.60;;;23.40;99.90;;;;;;5094159;28;20225;-81
2022/06/07 12:59:07;;;;;;;4.38;0.90;;;23.40;99.90;;;;;;5093610;28;20523;-81
2022/06/07 13:01:36;;;;;;;7.13;1.67;;;23.50;99.90;;;;;;5093440;28;20190;-81
2022/06/07 13:04:14;;;;;;;6.88;0.90;;;23.40;99.90;;;;;;5093592;28;20306;-82
2022/06/07 13:06:41;;;;;;;3.58;1.40;;;23.50;99.90;;;;;;5092729;28;20274;-81
2022/06/07 13:09:20;;;;;;;6.53;3.38;;;23.50;99.90;;;;;;5093711;28;20266;-81
2022/06/07 13:11:48;;;;;;;4.15;1.92;;;23.50;99.90;;;;;;5092464;28;20192;-81
2022/06/07 13:14:16;;;;;;;11.57;1.95;;;23.50;99.90;;;;;;5092972;28;20313;-81
2022/06/07 13:16:46;;;;;;;3.83;1.35;;;23.50;99.90;;;;;;5095137;28;20685;-81
2022/06/07 13:19:29;;;;;;;5.80;1.25;;;23.50;99.90;;;;;;5097207;28;20215;-82
2022/06/07 13:22:03;;;;;;;7.85;1.52;;;23.60;99.90;;;;;;5095790;28;20187;-82
2022/06/07 13:24:41;;;;;;;3.88;1.20;;;23.60;99.90;;;;;;5095988;28;20225;-82
2022/06/07 13:27:28;;;;;;;3.20;1.08;;;23.60;99.90;;;;;;5096563;28;20185;-82
2022/06/07 13:29:55;;;;;;;4.50;1.35;;;23.60;99.90;;;;;;5096499;28;20278;-82
2022/06/07 13:32:26;;;;;;;1.65;0.88;;;23.60;99.90;;;;;;5096397;28;20258;-81
2022/06/07 13:34:55;;;;;;;2.00;0.75;;;23.60;99.90;;;;;;5095974;28;20222;-82
2022/06/07 13:37:24;;;;;;;7.32;1.27;;;23.60;99.90;;;;;;5095869;28;20270;-82
2022/06/07 13:40:06;;;;;;;3.85;1.00;;;23.60;99.90;;;;;;5095736;28;20207;-82
2022/06/07 13:42:36;;;;;;;3.50;1.00;;;23.70;99.90;;;;;;5095825;28;20186;-82
2022/06/07 13:45:19;;;;;;;2.75;0.63;;;23.60;99.90;;;;;;5094401;28;20693;-82
2022/06/07 13:47:50;;;;;;;2.00;0.52;;;23.70;99.90;;;;;;5094861;28;20270;-82
2022/06/07 13:53:24;;;;;;;2.13;0.68;;;23.70;99.90;;;;;;5116993;22;20226;-82
2022/06/07 13:55:55;;;;;;;1.92;0.50;;;23.60;99.90;;;;;;5039225;28;20199;-82
2022/06/07 13:58:26;;;;;;;1.77;0.50;;;23.60;99.90;;;;;;5036436;28;20197;-83
2022/06/07 14:00:58;;;;;;;2.25;0.40;;;23.60;99.90;;;;;;5039594;28;20190;-83
2022/06/07 14:03:35;;;;;;;1.52;0.40;;;23.60;99.90;;;;;;5036551;28;20241;-83
2022/06/07 14:06:02;;;;;;;4.38;0.50;;;23.60;99.90;;;;;;5023152;28;20625;-83
2022/06/07 14:08:29;;;;;;;2.90;0.57;;;23.60;99.90;;;;;;5022691;28;20182;-82
2022/06/07 14:10:57;;;;;;;14.27;1.10;;;23.60;99.90;;;;;;5024610;28;20201;-83
2022/06/07 14:13:24;;;;;;;3.78;0.63;;;23.60;99.90;;;;;;5023452;28;20229;-83
2022/06/07 14:15:53;;;;;;;3.17;0.40;;;23.60;99.90;;;;;;5027226;28;20291;-83
2022/06/07 14:18:22;;;;;;;0.95;0.40;;;23.60;99.90;;;;;;5026930;28;20202;-82
2022/06/07 14:20:50;;;;;;;2.72;0.35;;;23.60;99.90;;;;;;5027152;28;20265;-83
2022/06/07 14:23:19;;;;;;;0.90;0.30;;;23.60;99.90;;;;;;5023742;28;20638;-82
2022/06/07 14:25:47;;;;;;;1.58;0.40;;;23.60;99.90;;;;;;5022665;28;20205;-82
2022/06/07 14:28:19;;;;;;;2.45;0.43;;;23.60;99.90;;;;;;5023973;28;20234;-82
2022/06/07 14:30:48;;;;;;;2.58;0.60;;;23.60;99.90;;;;;;5024545;28;20656;-82
2022/06/07 14:33:16;;;;;;;3.13;0.30;;;23.50;99.90;;;;;;5022608;28;20799;-82
2022/06/07 14:35:46;;;;;;;0.60;0.22;;;23.60;99.90;;;;;;5023702;28;20190;-81
2022/06/07 14:38:16;;;;;;;1.80;0.47;;;23.50;99.90;;;;;;5020983;28;20200;-82
2022/06/07 14:40:44;;;;;;;1.65;0.20;;;23.50;99.90;;;;;;5019915;28;20661;-82
2022/06/07 14:43:13;;;;;;;0.90;0.17;;;23.50;99.90;;;;;;5022251;28;20197;-81
2022/06/07 14:45:47;;;;;;;0.20;0.20;;;23.50;99.90;;;;;;5022398;28;20209;-81
2022/06/07 14:48:40;;;;;;;0.20;0.20;;;23.50;99.90;;;;;;5022889;28;20182;-82
2022/06/07 14:51:18;;;;;;;0.15;0.15;;;23.50;99.90;;;;;;5020912;28;20186;-82
2022/06/07 14:53:45;;;;;;;3.20;0.30;;;23.50;99.90;;;;;;5022967;28;20264;-82
2022/06/07 14:56:16;;;;;;;1.85;0.20;;;23.50;99.90;;;;;;5023376;28;20572;-82
2022/06/07 14:58:44;;;;;;;0.20;0.20;;;23.50;99.90;;;;;;5022722;28;20281;-82
2022/06/07 15:01:16;;;;;;;1.48;0.10;;;23.50;99.90;;;;;;5020390;28;20288;-82
2022/06/07 15:03:43;;;;;;;0.25;0.20;;;23.50;99.90;;;;;;5020030;28;20301;-81
2022/06/07 15:06:21;;;;;;;1.23;0.13;;;23.40;99.90;;;;;;5019999;28;20273;-82
2022/06/07 15:08:50;;;;;;;8.57;0.35;;;23.50;99.90;;;;;;5023890;28;20182;-82
2022/06/07 15:11:27;;;;;;;5.13;0.38;;;23.50;99.90;;;;;;5024299;28;20205;-81
2022/06/07 15:13:53;;;;;;;3.50;0.40;;;23.50;99.90;;;;;;5022850;28;20252;-81
2022/06/07 15:16:22;;;;;;;2.10;0.30;;;23.40;99.90;;;;;;5022849;28;20218;-82
2022/06/07 15:18:50;;;;;;;3.58;0.30;;;23.40;99.90;;;;;;5023613;28;20694;-82
2022/06/07 15:21:20;;;;;;;6.82;0.45;;;23.40;99.90;;;;;;5023380;28;20249;-82
2022/06/07 15:23:47;;;;;;;1.48;0.30;;;23.40;99.90;;;;;;5021171;28;20289;-82
2022/06/07 15:26:16;;;;;;;2.15;0.30;;;23.40;99.90;;;;;;5021744;28;20297;-82
2022/06/07 15:28:43;;;;;;;2.85;0.22;;;23.40;99.90;;;;;;5022561;28;20272;-82
2022/06/07 15:31:12;;;;;;;1.85;0.30;;;23.40;99.90;;;;;;5021820;28;20265;-82
2022/06/07 15:33:42;;;;;;;3.40;0.40;;;23.40;99.90;;;;;;5021168;28;20316;-82
2022/06/07 15:36:09;;;;;;;1.15;0.30;;;23.40;99.90;;;;;;5020961;28;20217;-82
2022/06/07 15:38:42;;;;;;;5.15;1.10;;;23.40;99.90;;;;;;5020621;28;20190;-82
2022/06/07 15:43:50;;;;;;;7.43;0.35;;;23.40;99.90;;;;;;5020720;28;20213;-81
2022/06/07 15:46:17;;;;;;;3.95;0.30;;;23.40;99.90;;;;;;5021592;28;20660;-82
2022/06/07 15:48:45;;;;;;;2.65;0.52;;;23.40;99.90;;;;;;5020056;28;20288;-82
2022/06/07 15:51:13;;;;;;;7.72;0.63;;;23.40;99.90;;;;;;5019767;28;20225;-80
2022/06/07 15:53:40;;;;;;;0.95;0.40;;;23.40;99.90;;;;;;5018571;28;20663;-79
2022/06/07 15:56:09;;;;;;;4.63;0.40;;;23.40;99.90;;;;;;5019389;28;20208;-80
2022/06/07 16:01:23;;;;;;;2.92;0.50;;;23.40;99.90;;;;;;5018129;28;20204;-80
2022/06/07 16:03:51;;;;;;;2.38;0.30;;;23.40;99.90;;;;;;5021897;28;20228;-79
2022/06/07 16:06:18;;;;;;;4.47;0.47;;;23.40;99.90;;;;;;5021168;28;20272;-79
2022/06/07 16:08:45;;;;;;;2.25;0.32;;;23.40;99.90;;;;;;5019485;28;20253;-80
2022/06/07 16:11:13;;;;;;;4.45;0.50;;;23.40;99.90;;;;;;5019171;28;20232;-79
2022/06/07 16:13:40;;;;;;;4.32;0.50;;;23.40;99.90;;;;;;5019202;28;20222;-80
2022/06/07 16:16:08;;;;;;;0.60;0.30;;;23.40;99.90;;;;;;5018842;28;20201;-79
2022/06/07 16:18:35;;;;;;;3.72;0.63;;;23.40;99.90;;;;;;5019942;28;20277;-80
2022/06/07 16:21:04;;;;;;;1.77;0.50;;;23.40;99.90;;;;;;5019675;28;20273;-80
2022/06/07 16:23:31;;;;;;;6.13;0.45;;;23.40;99.90;;;;;;5019088;28;20308;-80
2022/06/07 16:25:58;;;;;;;4.07;0.65;;;23.40;99.90;;;;;;5019579;28;20197;-80
2022/06/07 16:33:54;;;;;;;3.63;0.52;;;23.40;99.90;;;;;;5017238;28;20240;-80
2022/06/07 16:36:25;;;;;;;7.90;1.23;;;23.40;99.90;;;;;;5017928;28;20591;-81
2022/06/07 16:38:54;;;;;;;5.05;0.90;;;23.40;99.90;;;;;;5018062;28;20619;-80
2022/06/07 16:41:22;;;;;;;6.60;1.10;;;23.40;99.90;;;;;;5018114;28;20292;-80
2022/06/07 16:44:01;;;;;;;11.48;1.20;;;23.40;99.90;;;;;;5015986;28;20214;-80
2022/06/07 16:46:29;;;;;;;12.63;1.40;;;23.40;99.90;;;;;;5016946;28;20197;-80
2022/06/07 16:48:57;;;;;;;5.07;1.00;;;23.40;99.90;;;;;;5019134;28;20209;-80
2022/06/07 16:51:25;;;;;;;6.40;0.90;;;23.40;99.90;;;;;;5019758;28;20232;-80
2022/06/07 16:53:53;;;;;;;3.83;0.85;;;23.40;99.90;;;;;;5019927;28;20299;-80
2022/06/07 16:56:22;;;;;;;6.57;0.75;;;23.40;99.90;;;;;;5019067;28;20265;-79
2022/06/07 16:58:49;;;;;;;10.10;1.30;;;23.40;99.90;;;;;;5017773;28;20204;-79
2022/06/07 17:01:16;;;;;;;13.13;1.00;;;23.40;99.90;;;;;;5017573;28;20288;-80
2022/06/07 17:03:43;;;;;;;7.68;2.60;;;23.40;99.90;;;;;;5016940;28;20324;-80
2022/06/07 17:06:11;;;;;;;4.75;1.00;;;23.40;99.90;;;;;;5016724;28;20720;-81
2022/06/07 17:08:39;;;;;;;4.00;0.93;;;23.40;99.90;;;;;;5016091;28;20209;-81
2022/06/07 17:11:06;;;;;;;5.82;1.35;;;23.40;99.90;;;;;;5017097;28;20273;-81
2022/06/07 17:13:33;;;;;;;;;;;23.40;99.90;;;;;;5018059;28;20263;-81
2022/06/07 17:15:59;;;;;;;;;;;23.40;99.90;;;;;;5018183;28;19953;-81
2022/06/07 17:18:26;;;;;;;;;;;23.30;99.90;;;;;;5018154;28;20278;-81
2022/06/07 17:20:53;;;;;;;;;;;23.30;99.90;;;;;;5017900;28;20274;-81
2022/06/07 17:23:20;;;;;;;;;;;23.20;99.90;;;;;;5017791;28;20460;-82
2022/06/07 17:25:48;;;;;;;;;;;23.20;99.90;;;;;;5018151;28;20033;-81
2022/06/07 17:28:15;;;;;;;;;;;23.10;99.90;;;;;;5017620;28;20339;-82
2022/06/07 17:30:43;;;;;;;;;;;23.10;99.90;;;;;;5018263;28;20004;-82
2022/06/07 17:33:10;;;;;;;;;;;23.10;99.90;;;;;;5017285;28;20047;-82
2022/06/07 17:35:38;;;;;;;;;;;23.00;99.90;;;;;;5017707;28;19928;-82
2022/06/07 17:38:05;;;;;;;;;;;23.00;99.90;;;;;;5017736;28;19922;-82
2022/06/07 17:40:33;;;;;;;;;;;23.00;99.90;;;;;;5020996;28;20372;-81
2022/06/07 17:43:01;;;;;;;;;;;23.00;99.90;;;;;;5021923;28;19921;-81
2022/06/07 17:45:28;;;;;;;;;;;23.00;99.90;;;;;;5021531;28;20007;-82
2022/06/07 17:47:55;;;;;;;;;;;23.00;99.90;;;;;;5021335;28;20016;-82
2022/06/07 17:50:23;;;;;;;;;;;22.90;99.90;;;;;;5021403;28;20284;-82
2022/06/07 17:52:50;;;;;;;;;;;22.90;99.90;;;;;;5021400;28;20345;-82
2022/06/07 17:55:17;;;;;;;;;;;22.90;99.90;;;;;;5020790;28;19921;-82
2022/06/07 17:57:44;;;;;;;;;;;22.90;99.90;;;;;;5021488;28;20008;-82
2022/06/07 18:00:13;;;;;;;;;;;22.80;99.90;;;;;;5021146;28;19921;-82
2022/06/07 18:02:40;;;;;;;;;;;22.90;99.90;;;;;;5021644;28;19921;-81
2022/06/07 18:05:07;;;;;;;;;;;22.80;99.90;;;;;;5021294;28;19921;-81
2022/06/07 18:07:34;;;;;;;;;;;22.80;99.90;;;;;;5021872;28;20015;-81
2022/06/07 18:10:02;;;;;;;;;;;22.90;99.90;;;;;;5021496;28;20015;-81
2022/06/07 18:12:29;;;;;;;;;;;22.90;99.90;;;;;;5021589;28;20376;-81
2022/06/07 18:14:55;;;;;;;;;;;22.90;99.90;;;;;;5020865;28;20020;-80
2022/06/07 18:17:24;;;;;;;;;;;22.90;99.90;;;;;;5018904;28;19928;-79
2022/06/07 18:19:50;;;;;;;;;;;22.90;99.90;;;;;;5018265;28;19989;-79
2022/06/07 18:22:20;;;;;;;;;;;22.80;99.90;;;;;;5017246;28;19922;-79
2022/06/07 18:24:47;;;;;;;;;;;22.90;99.90;;;;;;5017971;28;19925;-79
2022/06/07 18:27:14;;;;;;;;;;;22.80;99.90;;;;;;5018345;28;19921;-79
2022/06/07 18:29:40;;;;;;;;;;;22.90;99.90;;;;;;5017853;28;19921;-79
2022/06/07 18:32:07;;;;;;;;;;;22.80;99.90;;;;;;5017715;28;19928;-78